This is the latest recevied weather packets stored in our database for station/object DG6YGE-6. If no packets are shown the sender has not sent any weather packets the latest 10 day(s).
| Time | Temp. | Humidity | Pressure | Rain* | Wind** | Luminosity | Snow |
|---|---|---|---|---|---|---|---|
| 1777803552 | 21.67° C | 58% | 1010.3 hPa | 0 mm | - | 472 W/m² | - |
| 1777802953 | 22.22° C | 54% | 1010.4 hPa | 0 mm | - | 325 W/m² | - |
| 1777802353 | 22.22° C | 54% | 1010.5 hPa | 0 mm | - | 650 W/m² | - |
| 1777801753 | 22.22° C | 59% | 1010.3 hPa | 0 mm | - | 605 W/m² | - |
| 1777801152 | 22.22° C | 57% | 1010.3 hPa | 0 mm | - | 518 W/m² | - |
| 1777800552 | 22.22° C | 58% | 1010.5 hPa | 0 mm | - | 692 W/m² | - |
| 1777799952 | 21.67° C | 63% | 1010.4 hPa | 0 mm | - | 606 W/m² | - |
| 1777799352 | 21.11° C | 66% | 1010.5 hPa | 0 mm | - | 576 W/m² | - |
| 1777798753 | 20.56° C | 65% | 1010.5 hPa | 0 mm | - | 539 W/m² | - |
| 1777798152 | 20.56° C | 67% | 1010.6 hPa | 0 mm | - | 553 W/m² | - |
| 1777797552 | 20° C | 69% | 1010.6 hPa | 0 mm | - | 386 W/m² | - |
| 1777796952 | 20.56° C | 69% | 1010.8 hPa | 0 mm | - | 666 W/m² | - |
| 1777796352 | 20° C | 73% | 1010.7 hPa | 0 mm | - | 514 W/m² | - |
| 1777795752 | 18.89° C | 77% | 1010.9 hPa | 0 mm | - | 503 W/m² | - |
| 1777795153 | 17.78° C | 82% | 1010.9 hPa | 0 mm | - | 484 W/m² | - |
| 1777794552 | 16.67° C | 86% | 1010.9 hPa | 0 mm | - | 438 W/m² | - |
| 1777793953 | 16.11° C | 91% | 1010.9 hPa | 0 mm | - | 442 W/m² | - |
| 1777793352 | 15.56° C | 94% | 1010.9 hPa | 0 mm | - | 403 W/m² | - |
| 1777792752 | 15° C | 94% | 1010.7 hPa | 0 mm | - | 327 W/m² | - |
| 1777792152 | 14.44° C | 94% | 1010.7 hPa | 0 mm | - | 207 W/m² | - |
| 1777791553 | 14.44° C | 93% | 1010.6 hPa | 0 mm | - | 236 W/m² | - |
| 1777790952 | 14.44° C | 94% | 1010.5 hPa | 0 mm | - | 328 W/m² | - |
| 1777790352 | 13.89° C | 94% | 1010.6 hPa | 0 mm | - | 136 W/m² | - |
| 1777789752 | 13.89° C | 93% | 1010.6 hPa | 0 mm | - | 221 W/m² | - |
| 1777789153 | 13.89° C | 93% | 1010.7 hPa | 0 mm | - | 222 W/m² | - |
* Rain latest hour (hover to see other rain measurements)
** Current wind speed in m/s (hover to see current wind gust speed)